Time;durP1;ratioP1;P1;durP2;ratioP2;P2;SDS_P1;SDS_P2;PMS_P1;PMS_P2;Temp;Humidity;BMP_temperature;BMP_pressure;BME280_temperature;BME280_humidity;BME280_pressure;Samples;Min_cycle;Max_cycle;Signal;HPM_P1;HPM_P2
2022/08/03 00:00:54;;;;;;;4.77;2.30;;;;;;;22.53;100.00;101212.94;2062961;28;20191;-64
2022/08/03 00:01:55;;;;;;;7.37;3.10;;;;;;;22.48;100.00;101208.81;2066945;28;20567;-64
2022/08/03 00:02:55;;;;;;;9.77;2.87;;;;;;;21.92;100.00;101130.50;2063256;28;20623;-64
2022/08/03 00:03:56;;;;;;;4.57;2.67;;;;;;;22.43;100.00;101206.69;2070273;28;20232;-64
2022/08/03 00:04:56;;;;;;;6.90;2.57;;;;;;;22.35;100.00;101205.56;2068361;28;20214;-64
2022/08/03 00:05:57;;;;;;;8.10;2.20;;;;;;;22.27;100.00;101206.53;2068779;28;20194;-64
2022/08/03 00:06:58;;;;;;;3.63;2.40;;;;;;;21.75;100.00;101132.34;2066763;28;20197;-64
2022/08/03 00:07:59;;;;;;;4.03;2.70;;;;;;;22.12;100.00;101198.19;2056210;28;20187;-64
2022/08/03 00:09:00;;;;;;;5.07;2.60;;;;;;;21.54;100.00;101127.25;2060897;28;20195;-64
2022/08/03 00:10:00;;;;;;;5.07;2.40;;;;;;;21.98;100.00;101204.69;2070102;28;20440;-64
2022/08/03 00:11:01;;;;;;;2.97;2.33;;;;;;;21.22;100.00;101089.69;2069740;28;20272;-65
2022/08/03 00:12:02;;;;;;;5.33;2.57;;;;;;;21.95;100.00;101200.03;2067621;28;20301;-64
2022/08/03 00:13:03;;;;;;;5.47;2.60;;;;;;;21.94;100.00;101211.81;2064345;28;20175;-64
2022/08/03 00:14:05;;;;;;;8.23;2.80;;;;;;;21.96;100.00;101207.22;2065356;28;20348;-64
2022/08/03 00:15:06;;;;;;;5.43;2.50;;;;;;;21.45;100.00;101128.13;2062279;28;20190;-64
2022/08/03 00:16:06;;;;;;;4.67;2.30;;;;;;;21.50;100.00;101150.00;2061011;28;20433;-64
2022/08/03 00:17:07;;;;;;;4.63;2.50;;;;;;;21.76;100.00;101190.34;2059222;28;20606;-64
2022/08/03 00:18:08;;;;;;;4.83;2.53;;;;;;;21.05;100.00;101082.28;2064662;28;20202;-64
2022/08/03 00:19:08;;;;;;;4.53;2.40;;;;;;;21.57;100.00;101160.06;2064216;28;20194;-64
2022/08/03 00:20:09;;;;;;;4.70;2.47;;;;;;;21.54;100.00;101166.72;2070263;28;20420;-64
2022/08/03 00:21:10;;;;;;;3.70;2.40;;;;;;;21.89;100.00;101209.69;2068117;28;20201;-64
2022/08/03 00:22:11;;;;;;;3.33;2.30;;;;;;;21.90;100.00;101217.69;2066186;28;20630;-64
2022/08/03 00:23:12;;;;;;;4.13;2.40;;;;;;;21.83;100.00;101220.16;2062676;28;20556;-64
2022/08/03 00:24:12;;;;;;;3.33;2.23;;;;;;;21.84;100.00;101214.03;2064188;28;20194;-64
2022/08/03 00:25:12;;;;;;;2.93;2.20;;;;;;;21.85;100.00;101217.63;2071353;28;20189;-64
2022/08/03 00:26:13;;;;;;;4.07;2.40;;;;;;;21.84;100.00;101210.41;2064471;28;20683;-64
2022/08/03 00:27:13;;;;;;;3.47;2.20;;;;;;;21.35;100.00;101140.84;2068220;28;20194;-64
2022/08/03 00:28:14;;;;;;;6.03;2.47;;;;;;;21.76;100.00;101212.13;2068194;28;20667;-64
2022/08/03 00:29:16;;;;;;;4.77;2.10;;;;;;;21.80;100.00;101210.63;2062617;28;20186;-64
2022/08/03 00:30:17;;;;;;;5.17;2.63;;;;;;;21.83;100.00;101214.50;2063151;28;20722;-64
2022/08/03 00:31:17;;;;;;;4.60;2.40;;;;;;;21.73;100.00;101196.19;2067664;28;20900;-64
2022/08/03 00:32:18;;;;;;;3.80;2.37;;;;;;;21.86;100.00;101205.81;2068410;28;20185;-64
2022/08/03 00:33:18;;;;;;;5.87;2.80;;;;;;;21.93;100.00;101216.69;2064068;28;20736;-64
2022/08/03 00:34:19;;;;;;;6.30;2.63;;;;;;;21.97;100.00;101219.28;2061450;28;20680;-64
2022/08/03 00:35:19;;;;;;;4.43;2.00;;;;;;;21.56;100.00;101150.84;2056578;28;20187;-64
2022/08/03 00:36:20;;;;;;;3.67;1.90;;;;;;;21.61;100.00;101150.13;2060040;28;20198;-64
2022/08/03 04:39:04;;;;;;;3.73;2.10;;;;;;;22.19;100.00;101338.09;2046995;28;20520;-64
2022/08/03 04:40:08;;;;;;;3.43;1.90;;;;;;;22.29;100.00;101353.63;2056773;28;20448;-64
2022/08/03 04:41:09;;;;;;;5.47;2.33;;;;;;;22.34;100.00;101355.72;2056099;28;20440;-63
2022/08/03 04:42:13;;;;;;;6.23;2.53;;;;;;;22.42;100.00;101360.44;2057695;28;20438;-63
2022/08/03 04:43:17;;;;;;;6.53;2.40;;;;;;;22.17;100.00;101321.66;2056831;28;20481;-63
2022/08/03 04:44:20;;;;;;;4.30;2.30;;;;;;;22.45;100.00;101350.22;2057842;28;20551;-63
2022/08/03 04:45:21;;;;;;;7.77;2.63;;;;;;;22.59;100.00;101363.50;2058358;28;20495;-63
2022/08/03 04:46:25;;;;;;;5.30;2.10;;;;;;;22.66;100.00;101363.81;2057848;28;20571;-63
2022/08/03 04:47:26;;;;;;;6.40;2.57;;;;;;;22.68;100.00;101366.91;2045677;28;20294;-63
2022/08/03 04:48:27;;;;;;;5.20;2.20;;;;;;;22.71;100.00;101357.47;2043008;28;20196;-63
2022/08/03 04:49:28;;;;;;;5.63;2.37;;;;;;;22.66;100.00;101346.88;2055891;28;20191;-63
2022/08/03 04:50:29;;;;;;;7.30;2.80;;;;;;;22.61;100.00;101324.22;2058536;28;20213;-64
2022/08/03 04:51:30;;;;;;;6.40;2.47;;;;;;;22.94;100.00;101372.59;2058478;28;20203;-64
2022/08/03 04:52:31;;;;;;;6.53;2.97;;;;;;;22.98;100.00;101370.31;2058804;28;20183;-63
2022/08/03 04:53:32;;;;;;;5.50;2.50;;;;;;;23.00;100.00;101362.09;2048527;28;20555;-64
2022/08/03 04:54:43;;;;;;;4.30;2.50;;;;;;;22.87;100.00;101327.81;2047432;28;20290;-63
2022/08/03 04:55:44;;;;;;;4.47;2.30;;;;;;;23.24;100.00;101369.00;2055502;28;20249;-64
2022/08/03 04:56:44;;;;;;;4.80;2.50;;;;;;;23.34;100.00;101366.78;2057055;28;20206;-64
2022/08/03 04:57:45;;;;;;;4.17;2.20;;;;;;;23.43;100.00;101372.25;2057522;28;20629;-63
2022/08/03 04:58:45;;;;;;;4.80;2.10;;;;;;;23.47;100.00;101370.75;2056212;28;20789;-63
2022/08/03 04:59:48;;;;;;;4.57;2.07;;;;;;;23.53;100.00;101365.91;2054557;28;20183;-63
2022/08/03 05:00:50;;;;;;;6.23;2.37;;;;;;;23.58;100.00;101370.81;2056161;28;20218;-63
2022/08/03 05:01:51;;;;;;;6.33;2.33;;;;;;;22.64;100.00;101210.22;2059481;28;20217;-63
2022/08/03 05:02:53;;;;;;;5.83;2.57;;;;;;;23.75;100.00;101374.50;2056739;28;20203;-63
2022/08/03 05:03:53;;;;;;;8.97;2.70;;;;;;;23.82;100.00;101378.94;2055080;28;20198;-64
2022/08/03 05:04:54;;;;;;;3.93;2.57;;;;;;;23.81;100.00;101378.19;2057361;28;20274;-63
2022/08/03 05:05:54;;;;;;;4.53;2.50;;;;;;;23.82;100.00;101379.72;2055629;28;20209;-63
2022/08/03 05:06:55;;;;;;;7.53;2.33;;;;;;;23.87;100.00;101370.50;2058360;28;20290;-63
2022/08/03 05:07:55;;;;;;;4.17;2.30;;;;;;;23.64;100.00;101342.56;2053025;28;20196;-64
2022/08/03 05:08:56;;;;;;;4.13;2.50;;;;;;;23.43;100.00;101322.09;2052612;28;20740;-64
2022/08/03 05:09:56;;;;;;;4.93;2.50;;;;;;;23.91;100.00;101382.34;2047333;28;20682;-64
2022/08/03 05:10:57;;;;;;;3.13;2.20;;;;;;;23.95;100.00;101379.31;2050466;28;20636;-64
2022/08/03 05:11:57;;;;;;;4.30;2.67;;;;;;;23.94;100.00;101386.22;2058975;28;20520;-63
2022/08/03 05:12:58;;;;;;;6.10;2.37;;;;;;;23.96;100.00;101387.28;2056439;28;20175;-64
2022/08/03 05:13:58;;;;;;;5.40;2.80;;;;;;;23.58;100.00;101328.38;2056655;28;20269;-63
2022/08/03 05:15:00;;;;;;;4.77;2.30;;;;;;;23.96;100.00;101390.09;2056974;28;20194;-65
2022/08/03 05:16:00;;;;;;;4.90;2.40;;;;;;;23.96;100.00;101392.19;2057180;28;20198;-64
2022/08/03 05:17:01;;;;;;;4.33;2.50;;;;;;;23.99;100.00;101394.75;2057775;28;20197;-63
2022/08/03 05:18:01;;;;;;;4.40;2.50;;;;;;;24.01;100.00;101397.09;2053731;28;20214;-64
2022/08/03 05:19:02;;;;;;;4.17;2.50;;;;;;;24.08;100.00;101390.94;2053929;28;20314;-64
2022/08/03 05:20:03;;;;;;;4.83;2.53;;;;;;;;;;2055323;28;20187;-64
2022/08/03 05:21:03;;;;;;;5.80;2.83;;;;;;;24.19;100.00;101411.59;2059153;28;20257;-64
2022/08/03 05:22:04;;;;;;;5.50;2.90;;;;;;;24.23;100.00;101397.97;2061017;28;20198;-64
2022/08/03 05:23:04;;;;;;;6.83;2.63;;;;;;;24.15;100.00;101398.97;2060677;28;20214;-64
2022/08/03 05:24:05;;;;;;;6.87;2.50;;;;;;;24.14;100.00;101397.41;2058291;28;20190;-64
2022/08/03 05:25:06;;;;;;;6.13;2.70;;;;;;;24.08;100.00;101400.22;2054649;28;20200;-63
2022/08/03 05:26:06;;;;;;;6.17;2.43;;;;;;;23.96;100.00;101378.03;2059035;28;20584;-64
2022/08/03 05:27:07;;;;;;;7.73;2.40;;;;;;;24.13;100.00;101401.53;2055671;28;20743;-63
2022/08/03 05:28:07;;;;;;;5.43;2.30;;;;;;;24.13;100.00;101398.69;2057269;28;20213;-64
2022/08/03 05:29:08;;;;;;;8.83;2.30;;;;;;;24.12;100.00;101394.31;2053621;28;20688;-63
2022/08/03 05:30:08;;;;;;;5.27;2.20;;;;;;;23.89;100.00;101361.53;2054025;28;20199;-63
2022/08/03 05:31:09;;;;;;;3.53;2.33;;;;;;;24.09;100.00;101396.09;2052251;28;20201;-63
2022/08/03 05:32:10;;;;;;;5.13;2.23;;;;;;;24.11;100.00;101393.53;2058349;28;20202;-63
2022/08/03 05:33:10;;;;;;;4.27;2.23;;;;;;;23.80;100.00;101344.72;2057446;28;20187;-64
2022/08/03 05:34:11;;;;;;;3.27;2.20;;;;;;;24.20;100.00;101389.72;2059784;28;20265;-64
2022/08/03 05:35:11;;;;;;;5.93;2.57;;;;;;;24.27;100.00;101398.53;2050412;28;20175;-64
2022/08/03 05:36:12;;;;;;;3.90;2.27;;;;;;;24.02;100.00;101365.44;2062540;28;20670;-63
2022/08/03 05:37:12;;;;;;;2.70;2.20;;;;;;;24.29;100.00;101401.63;2050119;28;20222;-63
2022/08/03 05:38:13;;;;;;;6.40;2.53;;;;;;;24.27;100.00;101392.84;2054009;28;21342;-64
2022/08/03 05:39:13;;;;;;;4.93;2.37;;;;;;;24.41;100.00;101393.94;2062200;28;20206;-63
2022/08/03 05:40:14;;;;;;;7.30;2.50;;;;;;;24.49;100.00;101395.75;2065827;28;20199;-64
2022/08/03 05:41:14;;;;;;;5.40;2.37;;;;;;;24.45;100.00;101389.56;2056842;28;20183;-64
2022/08/03 05:42:15;;;;;;;4.57;2.30;;;;;;;24.68;100.00;101399.72;2059366;28;20174;-64
2022/08/03 05:43:16;;;;;;;3.73;2.40;;;;;;;24.63;100.00;101377.03;2061635;28;20201;-63
2022/08/03 05:44:16;;;;;;;6.27;2.67;;;;;;;24.80;100.00;101411.84;2061695;28;20567;-63
2022/08/03 05:45:17;;;;;;;3.20;2.30;;;;;;;24.83;100.00;101410.84;2065636;28;20229;-64
2022/08/03 05:46:18;;;;;;;3.97;2.70;;;;;;;24.86;100.00;101416.25;2060250;28;20712;-64
2022/08/03 05:47:18;;;;;;;7.13;2.30;;;;;;;24.91;100.00;101415.47;2061054;28;20695;-64
2022/08/03 05:48:19;;;;;;;3.83;2.53;;;;;;;24.86;100.00;101410.56;2062088;28;20257;-64
2022/08/03 05:49:19;;;;;;;4.23;2.50;;;;;;;24.87;100.00;101417.78;2064621;28;20580;-64
2022/08/03 05:50:20;;;;;;;3.27;2.50;;;;;;;24.62;100.00;101390.41;2057571;28;20190;-63
2022/08/03 05:51:21;;;;;;;5.53;2.67;;;;;;;24.77;100.00;101412.88;2053904;28;20183;-64
2022/08/03 05:52:21;;;;;;;7.27;2.90;;;;;;;24.72;100.00;101403.06;2069419;28;20178;-63
2022/08/03 05:53:22;;;;;;;4.63;2.70;;;;;;;24.85;100.00;101416.75;2059548;28;20294;-64
2022/08/03 05:54:22;;;;;;;7.10;2.60;;;;;;;24.84;100.00;101416.00;2063628;28;20739;-64
2022/08/03 05:55:23;;;;;;;5.60;2.77;;;;;;;24.86;100.00;101426.81;2061750;28;20199;-64
2022/08/03 05:56:26;;;;;;;4.17;2.30;;;;;;;24.93;100.00;101421.41;2065925;28;20197;-64
2022/08/03 05:57:27;;;;;;;6.00;3.13;;;;;;;24.58;100.00;101350.22;2065149;28;20498;-63
2022/08/03 05:58:28;;;;;;;4.63;2.43;;;;;;;24.95;100.00;101413.19;2058083;28;20492;-63
2022/08/03 05:59:28;;;;;;;7.07;2.83;;;;;;;25.10;100.00;101424.28;2050616;28;20516;-63
2022/08/03 06:00:29;;;;;;;6.03;2.47;;;;;;;25.17;100.00;101427.38;2058043;28;20175;-63
2022/08/03 06:01:31;;;;;;;4.40;2.60;;;;;;;25.22;100.00;101426.59;2062149;28;20183;-64
2022/08/03 06:02:32;;;;;;;4.07;2.60;;;;;;;25.30;100.00;101426.91;2065265;28;20276;-64
2022/08/03 06:03:32;;;;;;;4.67;2.40;;;;;;;25.34;100.00;101416.09;2065465;28;20256;-63
2022/08/03 06:04:33;;;;;;;6.07;2.80;;;;;;;25.43;100.00;101430.00;2063372;28;20186;-64
2022/08/03 06:05:35;;;;;;;5.93;2.63;;;;;;;25.45;100.00;101424.59;2067126;28;20193;-64
2022/08/03 06:06:35;;;;;;;6.63;2.50;;;;;;;25.44;100.00;101425.88;2067057;28;20675;-63
2022/08/03 06:07:36;;;;;;;5.47;2.70;;;;;;;25.49;100.00;101425.09;2055012;28;20277;-64
2022/08/03 06:08:37;;;;;;;4.13;2.40;;;;;;;25.18;100.00;101374.28;2046948;28;20203;-63
2022/08/03 06:09:37;;;;;;;4.83;2.50;;;;;;;25.56;100.00;101425.38;2056999;28;20403;-64
2022/08/03 06:10:38;;;;;;;4.33;2.30;;;;;;;25.58;100.00;101431.28;2064698;28;20175;-64
2022/08/03 06:11:40;;;;;;;4.30;2.67;;;;;;;25.25;100.00;101363.22;2066661;28;20247;-63
2022/08/03 06:12:40;;;;;;;4.03;2.73;;;;;;;25.32;100.00;101373.25;2068229;28;20197;-64
2022/08/03 06:13:41;;;;;;;3.37;2.50;;;;;;;25.69;100.00;101433.34;2067101;28;20182;-64
2022/08/03 06:14:42;;;;;;;6.10;2.73;;;;;;;25.55;100.00;101392.59;2063461;28;20285;-65
2022/08/03 06:15:42;;;;;;;6.27;2.70;;;;;;;25.82;100.00;101425.06;2050022;28;20210;-64
2022/08/03 06:16:43;;;;;;;4.33;2.33;;;;;;;25.86;100.00;101425.56;2051105;28;20577;-64
2022/08/03 06:17:48;;;;;;;4.57;2.60;;;;;;;25.48;100.00;101366.81;2058159;28;20190;-64
2022/08/03 06:18:49;;;;;;;6.23;2.60;;;;;;;25.97;100.00;101425.56;2057226;28;20183;-65
2022/08/03 06:19:52;;;;;;;4.27;2.77;;;;;;;25.59;100.00;101363.94;2061937;28;21284;-64
2022/08/03 06:20:53;;;;;;;4.17;2.47;;;;;;;26.08;100.00;101426.34;2068116;28;20196;-64
2022/08/03 06:21:53;;;;;;;5.77;2.60;;;;;;;25.51;100.00;101343.06;2065436;28;20221;-65
2022/08/03 06:22:54;;;;;;;5.83;2.70;;;;;;;25.90;100.00;101394.84;2062549;28;20254;-63
2022/08/03 06:23:54;;;;;;;4.60;2.53;;;;;;;26.29;100.00;101433.22;2058753;28;20195;-64
2022/08/03 06:24:55;;;;;;;4.53;2.77;;;;;;;26.41;100.00;101437.56;2056244;28;20756;-64
2022/08/03 06:25:55;;;;;;;5.90;2.83;;;;;;;26.06;100.00;101389.13;2067696;28;20560;-64
2022/08/03 06:26:56;;;;;;;5.43;2.80;;;;;;;26.21;100.00;101405.88;2066620;28;20210;-64
2022/08/03 06:27:58;;;;;;;5.33;2.90;;;;;;;26.47;100.00;101429.78;2067237;28;20240;-64
2022/08/03 06:28:59;;;;;;;6.50;3.10;;;;;;;26.50;100.00;101433.66;2067525;28;20226;-64
2022/08/03 06:29:59;;;;;;;5.87;3.00;;;;;;;26.51;100.00;101423.84;2070451;28;20197;-64
2022/08/03 06:31:00;;;;;;;15.23;3.17;;;;;;;26.55;100.00;101433.66;2063370;28;20197;-64
2022/08/03 06:32:01;;;;;;;5.00;2.90;;;;;;;26.61;100.00;101433.66;2063709;28;20237;-63
2022/08/03 06:33:01;;;;;;;5.43;3.00;;;;;;;26.64;100.00;101436.22;2061173;28;20254;-64
2022/08/03 06:34:03;;;;;;;4.27;2.70;;;;;;;26.66;100.00;101435.69;2064356;28;20953;-64
2022/08/03 06:35:08;;;;;;;3.97;2.73;;;;;;;26.18;100.00;101359.41;2067727;28;20261;-64
2022/08/03 06:36:08;;;;;;;6.97;3.10;;;;;;;26.73;100.00;101435.91;2056230;28;20300;-63
2022/08/03 06:37:09;;;;;;;6.57;2.67;;;;;;;26.83;100.00;101430.69;2058927;28;20195;-63
2022/08/03 06:38:09;;;;;;;5.60;2.87;;;;;;;26.86;100.00;101429.66;2060070;28;20246;-63
2022/08/03 06:39:11;;;;;;;5.87;3.00;;;;;;;26.90;100.00;101432.97;2058982;28;20636;-64
2022/08/03 06:40:16;;;;;;;4.50;2.67;;;;;;;26.93;100.00;101426.22;2048725;28;20515;-64
2022/08/03 06:41:16;;;;;;;4.70;2.90;;;;;;;26.59;100.00;101377.31;2044407;28;20222;-64
2022/08/03 06:42:17;;;;;;;3.60;2.50;;;;;;;26.94;100.00;101431.41;2058461;28;20226;-64
2022/08/03 06:43:18;;;;;;;4.20;2.87;;;;;;;26.58;100.00;101372.16;2056270;28;20391;-64
2022/08/03 06:44:18;;;;;;;7.33;3.77;;;;;;;27.00;100.00;101426.44;2061863;28;20239;-65
2022/08/03 06:45:19;;;;;;;4.13;2.93;;;;;;;26.58;100.00;101355.09;2060668;28;20185;-64
2022/08/03 06:46:20;;;;;;;6.67;2.57;;;;;;;27.07;100.00;101434.41;2061041;28;20659;-63
2022/08/03 06:47:20;;;;;;;4.40;2.70;;;;;;;26.66;100.00;101356.09;2053740;28;20996;-64
2022/08/03 06:48:21;;;;;;;5.67;2.70;;;;;;;27.17;100.00;101429.97;2057739;28;20186;-64
2022/08/03 06:49:22;;;;;;;4.67;2.50;;;;;;;27.08;100.00;101404.63;2058417;28;20216;-65
2022/08/03 06:50:22;;;;;;;4.67;2.83;;;;;;;27.31;100.00;101428.81;2059081;28;20210;-64
2022/08/03 06:51:23;;;;;;;4.23;2.90;;;;;;;27.39;100.00;101420.50;2055643;28;20201;-64
2022/08/03 06:52:23;;;;;;;5.17;3.30;;;;;;;27.26;100.00;101401.19;2059572;28;20565;-64
2022/08/03 06:53:23;;;;;;;5.50;2.93;;;;;;;27.31;100.00;101419.50;2058615;28;20680;-64
2022/08/03 06:54:24;;;;;;;5.13;2.90;;;;;;;26.84;100.00;101358.28;2053719;28;20191;-64
2022/08/03 06:55:25;;;;;;;6.07;3.00;;;;;;;27.36;100.00;101425.16;2055887;28;20202;-64
2022/08/03 06:56:26;;;;;;;5.53;2.93;;;;;;;27.46;100.00;101423.53;2058581;28;20213;-64
2022/08/03 06:57:26;;;;;;;4.83;2.77;;;;;;;27.34;100.00;101404.22;2055871;28;20668;-64
2022/08/03 06:58:27;;;;;;;6.83;2.93;;;;;;;27.32;100.00;101415.34;2058957;28;20233;-64
2022/08/03 06:59:28;;;;;;;3.63;2.80;;;;;;;26.95;100.00;101367.50;2058114;28;20664;-65
2022/08/03 07:00:29;;;;;;;6.30;3.20;;;;;;;27.35;100.00;101439.91;2054657;28;20190;-64
2022/08/03 07:01:30;;;;;;;5.37;2.97;;;;;;;27.34;100.00;101419.22;2058259;28;20674;-64
2022/08/03 07:02:30;;;;;;;6.43;3.77;;;;;;;26.85;100.00;101326.47;2057833;28;20651;-63
2022/08/03 07:03:31;;;;;;;5.00;2.90;;;;;;;27.55;100.00;101428.09;2057235;28;20286;-64
2022/08/03 07:04:32;;;;;;;3.80;2.60;;;;;;;27.01;100.00;101342.63;2056753;28;20195;-64
2022/08/03 07:05:33;;;;;;;4.07;3.10;;;;;;;27.60;100.00;101433.75;2061052;28;20605;-64
2022/08/03 07:06:34;;;;;;;6.73;2.83;;;;;;;27.61;100.00;101435.31;2059349;28;20228;-64
2022/08/03 07:07:35;;;;;;;8.27;3.10;;;;;;;27.64;100.00;101430.63;2061766;28;20229;-64
2022/08/03 07:08:36;;;;;;;5.40;3.00;;;;;;;27.66;100.00;101434.47;2056753;28;20206;-64
2022/08/03 07:09:36;;;;;;;6.13;2.90;;;;;;;27.73;100.00;101428.19;2049134;28;20191;-63
2022/08/03 07:10:37;;;;;;;6.00;2.67;;;;;;;27.77;100.00;101428.69;2048934;28;20195;-64
2022/08/03 07:11:37;;;;;;;8.23;3.27;;;;;;;27.74;100.00;101429.72;2058860;28;20182;-64
2022/08/03 07:12:39;;;;;;;5.17;2.93;;;;;;;27.26;100.00;101360.56;2056965;28;20262;-64
2022/08/03 07:13:40;;;;;;;6.57;3.00;;;;;;;27.81;100.00;101432.03;2061608;28;20676;-64
2022/08/03 07:14:40;;;;;;;5.40;2.87;;;;;;;27.70;100.00;101405.69;2057475;28;20691;-65
2022/08/03 07:15:41;;;;;;;8.03;2.80;;;;;;;27.89;100.00;101423.69;2053954;28;20184;-65
2022/08/03 07:16:41;;;;;;;4.63;2.70;;;;;;;27.93;100.00;101419.22;2055232;28;20669;-64
2022/08/03 07:17:42;;;;;;;3.53;2.70;;;;;;;27.73;100.00;101405.41;2058399;28;20261;-64
2022/08/03 07:18:42;;;;;;;4.77;2.60;;;;;;;27.98;100.00;101429.78;2054885;28;20179;-64
2022/08/03 07:19:43;;;;;;;3.43;2.60;;;;;;;27.76;100.00;101381.56;2056161;28;20598;-64
2022/08/03 07:20:43;;;;;;;6.37;2.80;;;;;;;27.82;100.00;101381.53;2061168;28;20277;-64
2022/08/03 07:21:44;;;;;;;3.93;2.63;;;;;;;28.13;100.00;101429.34;2057735;28;20190;-65
2022/08/03 07:22:45;;;;;;;3.80;2.87;;;;;;;28.18;100.00;101425.66;2056048;28;20680;-64
2022/08/03 07:23:45;;;;;;;5.10;2.63;;;;;;;27.86;100.00;101364.91;2050637;28;20286;-64
2022/08/03 07:24:46;;;;;;;4.17;2.60;;;;;;;28.31;100.00;101431.47;2048885;28;20192;-64
2022/08/03 07:25:47;;;;;;;7.13;2.90;;;;;;;28.30;100.00;101415.69;2054927;28;20187;-64
2022/08/03 07:26:47;;;;;;;3.27;2.50;;;;;;;28.02;100.00;101381.03;2058610;28;20195;-64
2022/08/03 07:27:48;;;;;;;5.83;2.80;;;;;;;27.61;100.00;101343.41;2055279;28;20183;-64
2022/08/03 07:28:48;;;;;;;4.27;2.90;;;;;;;28.18;100.00;101429.28;2056111;28;20214;-64
2022/08/03 07:29:49;;;;;;;3.23;2.60;;;;;;;28.16;100.00;101426.22;2051984;28;20832;-64
2022/08/03 07:30:50;;;;;;;5.97;3.10;;;;;;;28.31;100.00;101422.94;2050640;28;20269;-65
2022/08/03 07:31:50;;;;;;;4.20;2.87;;;;;;;28.14;100.00;101420.28;2057550;28;20672;-64
2022/08/03 07:32:51;;;;;;;4.60;2.77;;;;;;;28.36;100.00;101431.41;2057428;28;20192;-64
2022/08/03 07:33:51;;;;;;;5.13;2.80;;;;;;;28.11;100.00;101387.16;2055523;28;20190;-65
2022/08/03 07:34:52;;;;;;;3.90;2.70;;;;;;;28.43;100.00;101436.53;2060814;28;20191;-64
2022/08/03 07:35:52;;;;;;;7.10;3.20;;;;;;;28.43;100.00;101427.22;2058961;28;20317;-64
2022/08/03 07:36:53;;;;;;;5.87;2.70;;;;;;;28.40;100.00;101426.19;2066464;28;20183;-64
2022/08/03 07:37:53;;;;;;;7.22;3.00;;;;;;;28.40;100.00;101437.59;2063690;28;20187;-64
2022/08/03 07:38:54;;;;;;;3.20;2.55;;;;;;;27.83;100.00;101343.97;2066303;28;20393;-64
2022/08/03 07:39:54;;;;;;;5.97;2.90;;;;;;;28.10;100.00;101382.00;2065017;28;20182;-64
2022/08/03 07:40:55;;;;;;;3.67;2.57;;;;;;;28.45;100.00;101431.06;2064548;28;20542;-64
2022/08/03 07:41:55;;;;;;;5.53;2.65;;;;;;;28.51;100.00;101437.47;2064226;28;20679;-64
2022/08/03 07:42:57;;;;;;;4.70;2.80;;;;;;;28.54;100.00;101439.25;2065532;28;20289;-64
2022/08/03 07:43:57;;;;;;;6.03;2.88;;;;;;;28.52;100.00;101423.97;2060379;28;20288;-64
2022/08/03 07:44:58;;;;;;;6.70;2.80;;;;;;;28.70;100.00;101441.09;2055003;28;20261;-64
2022/08/03 07:45:59;;;;;;;3.80;2.80;;;;;;;28.67;100.00;101430.75;2065400;28;20187;-64
2022/08/03 07:46:59;;;;;;;5.22;2.78;;;;;;;28.07;100.00;101352.50;2060781;28;20198;-64
2022/08/03 07:48:00;;;;;;;3.83;2.60;;;;;;;28.54;100.00;101430.69;2063738;28;20197;-64
2022/08/03 07:49:00;;;;;;;4.40;2.70;;;;;;;28.51;100.00;101431.00;2066084;28;20193;-63
2022/08/03 07:50:01;;;;;;;5.47;2.40;;;;;;;28.26;100.00;101383.88;2063791;28;20202;-63
2022/08/03 07:51:02;;;;;;;3.50;2.57;;;;;;;28.73;100.00;101442.09;2066140;28;20210;-64
2022/08/03 07:53:22;;;;;;;3.50;2.73;;;;;;;28.67;100.00;101435.72;2057777;28;20210;-64
2022/08/03 07:54:22;;;;;;;3.33;2.50;;;;;;;28.60;100.00;101425.69;2061356;28;20651;-64
2022/08/03 07:55:24;;;;;;;3.87;2.40;;;;;;;28.67;100.00;101432.88;2062974;28;20546;-64
2022/08/03 07:56:25;;;;;;;5.00;2.73;;;;;;;28.73;100.00;101433.56;2066664;28;20838;-64
2022/08/03 07:57:25;;;;;;;5.17;2.60;;;;;;;28.72;100.00;101432.00;2064370;28;20268;-63
2022/08/03 07:58:26;;;;;;;4.53;2.50;;;;;;;28.71;100.00;101433.34;2059699;28;20684;-64
2022/08/03 07:59:27;;;;;;;3.93;2.53;;;;;;;28.73;100.00;101434.34;2057080;28;20657;-64
2022/08/03 08:00:27;;;;;;;2.63;2.10;;;;;;;28.56;100.00;101408.09;2063580;28;20197;-64
2022/08/03 08:01:28;;;;;;;3.83;2.57;;;;;;;28.70;100.00;101438.25;2060956;28;20203;-64
2022/08/03 08:02:29;;;;;;;14.40;3.27;;;;;;;28.31;100.00;101369.53;2066890;28;20675;-63
2022/08/03 08:03:29;;;;;;;6.20;2.53;;;;;;;28.64;100.00;101420.44;2064938;28;20497;-64
2022/08/03 08:04:30;;;;;;;5.68;2.55;;;;;;;28.76;100.00;101432.47;2063526;28;20667;-63
2022/08/03 08:05:31;;;;;;;4.35;2.30;;;;;;;28.85;100.00;101441.41;2064147;28;20190;-64
2022/08/03 08:06:32;;;;;;;4.43;2.20;;;;;;;28.61;100.00;101393.00;2068485;28;20189;-64
2022/08/03 08:07:32;;;;;;;4.38;2.47;;;;;;;28.93;100.00;101436.66;2064034;28;20201;-63
2022/08/03 08:08:33;;;;;;;4.13;2.50;;;;;;;28.68;100.00;101398.09;2067346;28;20232;-64
2022/08/03 08:09:33;;;;;;;6.40;2.60;;;;;;;29.01;100.00;101439.69;2068193;28;20686;-65
2022/08/03 08:10:35;;;;;;;4.60;2.22;;;;;;;29.06;100.00;101447.34;2063642;28;20644;-63
2022/08/03 08:11:35;;;;;;;5.03;2.28;;;;;;;29.07;100.00;101446.06;2070882;28;20208;-63
2022/08/03 08:12:37;;;;;;;6.93;2.30;;;;;;;29.11;100.00;101435.09;2063076;28;20647;-64
2022/08/03 08:13:38;;;;;;;5.05;2.50;;;;;;;29.08;100.00;101445.50;2061377;28;20224;-63
2022/08/03 08:14:38;;;;;;;5.03;2.42;;;;;;;29.15;100.00;101442.03;2063034;28;20826;-64
2022/08/03 08:15:39;;;;;;;4.57;2.27;;;;;;;29.21;100.00;101439.88;2064086;28;20651;-64
2022/08/03 08:16:39;;;;;;;5.90;2.60;;;;;;;29.07;100.00;101412.56;2055230;28;20256;-64
2022/08/03 08:17:46;;;;;;;3.73;2.60;;;;;;;29.04;100.00;101376.56;2057626;28;20180;-64
2022/08/03 08:18:49;;;;;;;3.83;2.40;;;;;;;29.50;100.00;101444.59;2063836;28;20189;-64
2022/08/03 08:19:50;;;;;;;6.43;2.30;;;;;;;29.44;100.00;101432.50;2067744;28;20268;-64
2022/08/03 08:20:50;;;;;;;3.57;2.40;;;;;;;29.46;100.00;101443.34;2066727;28;20201;-64
2022/08/03 08:21:51;;;;;;;4.20;2.53;;;;;;;29.41;100.00;101439.28;2062430;28;20692;-64
2022/08/03 08:22:53;;;;;;;3.73;3.00;;;;;;;29.30;100.00;101433.75;2067245;28;20203;-63
2022/08/03 08:23:54;;;;;;;3.90;2.73;;;;;;;29.24;100.00;101438.00;2067306;28;20268;-63
2022/08/03 08:24:55;;;;;;;4.18;2.53;;;;;;;28.97;100.00;101394.31;2059965;28;20294;-64
2022/08/03 08:25:55;;;;;;;5.13;2.60;;;;;;;29.34;100.00;101442.00;2058779;28;20186;-64
2022/08/03 08:26:55;;;;;;;3.37;2.43;;;;;;;29.34;100.00;101430.59;2068204;28;20549;-64
2022/08/03 08:28:00;;;;;;;5.30;2.60;;;;;;;29.12;100.00;101388.13;2067135;28;20190;-64
2022/08/03 08:29:01;;;;;;;6.40;3.03;;;;;;;29.42;100.00;101440.06;2062249;28;20280;-63
2022/08/03 08:30:04;;;;;;;11.30;3.20;;;;;;;29.50;100.00;101438.09;2066434;28;20194;-64
2022/08/03 08:31:04;;;;;;;4.13;2.77;;;;;;;29.50;100.00;101438.88;2067257;28;20209;-64
2022/08/03 08:32:05;;;;;;;10.50;2.93;;;;;;;29.58;100.00;101442.66;2055780;28;20205;-63
2022/08/03 08:33:05;;;;;;;7.60;2.90;;;;;;;29.42;100.00;101405.81;2057750;28;20182;-64
2022/08/03 08:34:06;;;;;;;4.75;2.67;;;;;;;29.82;100.00;101436.00;2065621;28;20572;-63
2022/08/03 08:35:08;;;;;;;6.50;2.50;;;;;;;29.37;100.00;101373.16;2062512;28;20565;-63
2022/08/03 08:36:08;;;;;;;7.97;2.78;;;;;;;29.52;100.00;101373.41;2067708;28;20694;-63
2022/08/03 08:37:09;;;;;;;5.53;2.57;;;;;;;29.99;100.00;101439.31;2052819;28;20194;-65
2022/08/03 08:38:09;;;;;;;13.77;3.08;;;;;;;30.05;100.00;101431.41;2054990;28;20191;-64
2022/08/03 08:39:11;;;;;;;10.30;3.28;;;;;;;29.77;100.00;101394.78;2065209;28;20276;-64
2022/08/03 08:40:14;;;;;;;8.27;3.05;;;;;;;30.18;100.00;101434.28;2066884;28;20589;-63
2022/08/03 08:41:16;;;;;;;5.50;3.03;;;;;;;30.22;100.00;101432.66;2064951;28;20208;-63
2022/08/03 08:42:16;;;;;;;6.10;2.58;;;;;;;30.26;100.00;101423.75;2068131;28;20687;-63
2022/08/03 08:43:17;;;;;;;9.20;2.70;;;;;;;30.07;100.00;101431.63;2061178;28;20215;-63